Time;durP1;ratioP1;P1;durP2;ratioP2;P2;SDS_P1;SDS_P2;PMS_P1;PMS_P2;Temp;Humidity;BMP_temperature;BMP_pressure;BME280_temperature;BME280_humidity;BME280_pressure;Samples;Min_cycle;Max_cycle;Signal;HPM_P1;HPM_P2
2023/01/15 00:02:09;;;;;;;3.33;0.90;;;6.80;99.90;;;;;;5076753;28;20027;-77
2023/01/15 00:04:35;;;;;;;5.75;0.88;;;6.80;99.90;;;;;;5090697;28;20078;-77
2023/01/15 00:07:03;;;;;;;4.43;1.08;;;6.80;99.90;;;;;;5077162;28;20492;-78
2023/01/15 00:09:31;;;;;;;3.72;0.70;;;6.70;99.90;;;;;;5094233;28;20562;-78
2023/01/15 00:11:57;;;;;;;4.10;0.70;;;6.70;99.90;;;;;;5095329;28;20036;-77
2023/01/15 00:14:23;;;;;;;5.43;0.90;;;6.70;99.90;;;;;;5086886;28;20055;-77
2023/01/15 00:16:52;;;;;;;5.45;0.90;;;6.70;99.90;;;;;;5094795;28;20140;-78
2023/01/15 00:19:18;;;;;;;3.42;0.63;;;6.70;99.90;;;;;;5079166;28;20375;-79
2023/01/15 00:21:44;;;;;;;4.40;1.33;;;6.60;99.90;;;;;;5117632;28;20190;-79
2023/01/15 00:29:38;;;;;;;7.78;0.88;;;6.70;99.90;;;;;;5110358;28;20054;-78
2023/01/15 00:32:06;;;;;;;6.53;0.98;;;6.70;99.90;;;;;;5094021;28;20028;-78
2023/01/15 00:34:34;;;;;;;5.32;1.05;;;6.70;99.90;;;;;;5110653;28;20032;-78
2023/01/15 00:37:00;;;;;;;5.30;0.93;;;6.60;99.90;;;;;;5078782;28;20067;-78
2023/01/15 00:39:25;;;;;;;8.02;1.38;;;6.60;99.90;;;;;;5076771;28;20028;-78
2023/01/15 00:41:52;;;;;;;11.48;1.23;;;6.60;99.90;;;;;;5111783;28;20024;-78
2023/01/15 00:44:19;;;;;;;8.23;0.90;;;6.70;99.90;;;;;;5100716;28;20028;-77
2023/01/15 00:46:45;;;;;;;3.83;0.90;;;6.60;99.90;;;;;;5102727;28;20039;-78
2023/01/15 00:49:11;;;;;;;4.03;1.00;;;6.60;99.90;;;;;;5104965;28;20152;-78
2023/01/15 00:51:37;;;;;;;3.72;0.70;;;6.60;99.90;;;;;;5116864;28;20024;-79
2023/01/15 00:54:03;;;;;;;4.30;0.80;;;6.60;99.90;;;;;;5096504;28;21123;-78
2023/01/15 00:56:29;;;;;;;9.52;1.95;;;6.60;99.90;;;;;;5107354;28;20028;-78
2023/01/15 00:58:55;;;;;;;3.47;0.85;;;6.60;99.90;;;;;;5122512;28;20051;-78
2023/01/15 01:01:21;;;;;;;7.07;0.85;;;6.60;99.90;;;;;;5101494;28;20119;-79
2023/01/15 01:03:49;;;;;;;3.88;0.63;;;6.50;99.90;;;;;;5100550;28;20097;-78
2023/01/15 01:06:15;;;;;;;6.03;0.93;;;6.50;99.90;;;;;;5075598;28;20170;-78
2023/01/15 01:08:42;;;;;;;3.40;0.75;;;6.50;99.90;;;;;;5079704;28;20027;-78
2023/01/15 01:11:10;;;;;;;6.43;1.13;;;6.50;99.90;;;;;;5131422;28;20035;-78
2023/01/15 01:13:37;;;;;;;5.15;1.60;;;6.50;99.90;;;;;;5092100;28;20067;-78
2023/01/15 01:16:04;;;;;;;6.90;0.98;;;6.50;99.90;;;;;;5121685;28;20024;-78
2023/01/15 01:18:30;;;;;;;7.60;1.05;;;6.50;99.90;;;;;;5112167;28;20347;-79
2023/01/15 01:20:56;;;;;;;7.15;1.00;;;6.50;99.90;;;;;;5094043;28;20036;-78
2023/01/15 01:23:23;;;;;;;4.53;1.20;;;6.60;99.90;;;;;;5096172;28;20065;-79
2023/01/15 01:25:49;;;;;;;8.43;0.90;;;6.60;99.90;;;;;;5112326;28;20024;-78
2023/01/15 01:28:14;;;;;;;3.72;1.00;;;6.60;99.90;;;;;;5096958;28;20023;-79
2023/01/15 01:30:41;;;;;;;6.15;1.27;;;6.60;99.90;;;;;;5111240;28;20032;-79
2023/01/15 01:33:07;;;;;;;9.45;1.25;;;6.60;99.90;;;;;;5093777;28;20046;-78
2023/01/15 01:35:33;;;;;;;3.33;0.95;;;6.60;99.90;;;;;;5113199;28;20035;-79
2023/01/15 01:37:59;;;;;;;6.97;1.00;;;6.70;99.90;;;;;;5094209;28;20023;-76
2023/01/15 01:40:25;;;;;;;4.45;1.13;;;6.70;99.90;;;;;;5073125;28;20125;-77
2023/01/15 01:42:50;;;;;;;7.45;1.40;;;6.70;99.90;;;;;;5089373;28;20364;-78
2023/01/15 01:45:26;;;;;;;6.68;1.25;;;6.70;99.90;;;;;;5072729;28;20510;-78
2023/01/15 01:48:05;;;;;;;6.82;1.25;;;6.70;99.90;;;;;;5092365;28;20464;-78
2023/01/15 01:50:33;;;;;;;6.45;1.20;;;6.70;99.90;;;;;;5110798;28;20039;-78
2023/01/15 01:53:11;;;;;;;4.70;0.98;;;6.70;99.90;;;;;;5104180;28;20032;-78
2023/01/15 01:55:37;;;;;;;4.80;1.00;;;6.70;99.90;;;;;;5094246;28;20034;-76
2023/01/15 01:58:06;;;;;;;4.90;1.38;;;6.70;99.90;;;;;;5093905;28;20027;-78
2023/01/15 02:00:34;;;;;;;5.75;1.00;;;6.70;99.90;;;;;;5085223;28;20028;-78
2023/01/15 02:03:04;;;;;;;5.72;1.00;;;6.70;99.90;;;;;;5093127;28;20549;-76
2023/01/15 02:05:33;;;;;;;6.78;1.45;;;6.70;99.90;;;;;;5102836;28;20359;-77
2023/01/15 02:08:00;;;;;;;3.90;1.15;;;6.70;99.90;;;;;;5088039;28;20197;-76
2023/01/15 02:10:26;;;;;;;5.40;1.55;;;6.70;99.90;;;;;;5089454;28;20411;-77
2023/01/15 02:13:05;;;;;;;5.88;1.20;;;6.70;99.90;;;;;;5068353;28;20062;-76
2023/01/15 02:15:45;;;;;;;6.35;1.77;;;6.70;99.90;;;;;;5102731;28;20027;-77
2023/01/15 02:18:19;;;;;;;4.50;1.20;;;6.70;99.90;;;;;;5069171;28;20479;-77
2023/01/15 02:20:54;;;;;;;10.10;2.05;;;6.70;99.90;;;;;;5088757;28;20027;-77
2023/01/15 02:23:31;;;;;;;5.05;1.15;;;6.70;99.90;;;;;;5105846;28;20069;-77
2023/01/15 02:26:28;;;;;;;6.18;1.80;;;6.70;99.90;;;;;;5104448;28;20035;-77
2023/01/15 02:28:57;;;;;;;6.93;1.20;;;6.70;99.90;;;;;;5086334;28;20032;-78
2023/01/15 02:31:42;;;;;;;6.70;1.55;;;6.70;99.90;;;;;;5089202;28;20028;-77
2023/01/15 02:34:19;;;;;;;4.50;1.13;;;6.70;99.90;;;;;;5074083;28;20046;-79
2023/01/15 02:36:55;;;;;;;6.50;1.40;;;6.70;99.90;;;;;;5072498;28;20059;-78
2023/01/15 02:39:23;;;;;;;4.85;1.55;;;6.70;99.90;;;;;;5090648;28;20034;-78
2023/01/15 02:41:52;;;;;;;8.00;1.20;;;6.70;99.90;;;;;;5071024;28;20387;-78
2023/01/15 02:44:21;;;;;;;9.43;1.40;;;6.70;99.90;;;;;;5094322;28;20039;-78
2023/01/15 02:46:48;;;;;;;4.57;1.05;;;6.70;99.90;;;;;;5078921;28;20043;-78
2023/01/15 02:49:19;;;;;;;4.53;1.35;;;6.70;99.90;;;;;;5112850;28;20171;-78
2023/01/15 02:51:59;;;;;;;5.57;1.02;;;6.70;99.90;;;;;;5101734;28;20019;-77
2023/01/15 02:54:29;;;;;;;7.87;1.20;;;6.70;99.90;;;;;;5072287;28;20110;-77
2023/01/15 02:56:58;;;;;;;11.18;1.23;;;6.70;99.90;;;;;;5088499;28;20023;-79
2023/01/15 02:59:29;;;;;;;9.05;1.20;;;6.70;99.90;;;;;;5073570;28;20031;-78
2023/01/15 03:02:00;;;;;;;6.72;1.27;;;6.70;99.90;;;;;;5108347;28;20093;-77
2023/01/15 03:04:57;;;;;;;8.98;1.55;;;6.70;99.90;;;;;;5087656;28;20031;-77
2023/01/15 03:07:43;;;;;;;6.65;1.30;;;6.70;99.90;;;;;;5079139;28;20057;-77
2023/01/15 03:10:10;;;;;;;10.98;1.30;;;6.70;99.90;;;;;;5107254;28;20030;-77
2023/01/15 03:13:03;;;;;;;8.48;1.58;;;6.70;99.90;;;;;;5112937;28;20027;-77
2023/01/15 03:18:26;;;;;;;7.85;1.45;;;6.70;99.90;;;;;;5092288;28;20046;-76
2023/01/15 03:20:56;;;;;;;7.93;1.02;;;6.70;99.90;;;;;;5111819;27;20074;-77
2023/01/15 03:23:26;;;;;;;6.90;1.20;;;6.70;99.90;;;;;;5073736;28;20027;-77
2023/01/15 03:25:52;;;;;;;12.18;1.45;;;6.60;99.90;;;;;;5108000;28;20097;-77
2023/01/15 03:28:25;;;;;;;9.20;1.50;;;6.70;99.90;;;;;;5090842;28;20027;-77
2023/01/15 03:30:51;;;;;;;7.25;1.73;;;6.70;99.90;;;;;;5073273;28;20039;-79
2023/01/15 03:33:17;;;;;;;4.30;1.27;;;6.70;99.90;;;;;;5115573;28;20027;-79
2023/01/15 03:35:57;;;;;;;7.63;1.95;;;6.70;99.90;;;;;;5094563;28;20023;-78
2023/01/15 03:38:35;;;;;;;11.85;2.38;;;6.70;99.90;;;;;;5094557;28;20024;-78
2023/01/15 03:41:01;;;;;;;12.82;2.08;;;6.70;99.90;;;;;;5110712;28;20031;-78
2023/01/15 03:43:41;;;;;;;5.60;1.15;;;6.60;99.90;;;;;;5111762;28;20035;-79
2023/01/15 03:46:20;;;;;;;8.75;2.00;;;6.60;99.90;;;;;;5094301;28;20035;-79
2023/01/15 03:48:55;;;;;;;6.20;0.98;;;6.60;99.90;;;;;;5110868;28;20024;-77
2023/01/15 03:51:52;;;;;;;12.38;1.60;;;6.60;99.90;;;;;;5091632;28;20106;-77
2023/01/15 03:54:31;;;;;;;10.07;1.38;;;6.60;99.90;;;;;;5052143;28;20388;-77
2023/01/15 03:57:11;;;;;;;7.13;1.02;;;6.60;99.90;;;;;;5082257;28;20073;-77
2023/01/15 03:59:45;;;;;;;8.77;1.95;;;6.60;99.90;;;;;;5109569;28;20165;-75
2023/01/15 04:02:14;;;;;;;14.02;2.63;;;6.60;99.90;;;;;;5110339;28;20059;-75
2023/01/15 04:04:41;;;;;;;7.50;1.55;;;6.60;99.90;;;;;;5091783;28;20163;-76
2023/01/15 04:07:06;;;;;;;9.32;2.00;;;6.60;99.90;;;;;;5091182;28;20293;-77
2023/01/15 04:09:38;;;;;;;9.18;1.75;;;6.60;99.90;;;;;;5075898;28;20049;-76
2023/01/15 04:12:04;;;;;;;8.18;1.35;;;6.60;99.90;;;;;;5086196;27;20035;-75
2023/01/15 04:14:31;;;;;;;11.30;1.83;;;6.60;99.90;;;;;;5094901;28;20035;-75
2023/01/15 04:16:56;;;;;;;11.60;1.45;;;6.60;99.90;;;;;;5087730;28;20031;-77
2023/01/15 04:19:22;;;;;;;13.55;1.98;;;6.60;99.90;;;;;;5093149;28;20027;-76
2023/01/15 04:21:48;;;;;;;13.82;1.75;;;6.60;99.90;;;;;;5110188;28;20019;-75
2023/01/15 04:24:13;;;;;;;8.18;1.50;;;6.50;99.90;;;;;;5092151;28;20123;-76
2023/01/15 04:26:39;;;;;;;13.23;2.08;;;6.50;99.90;;;;;;5072870;28;20028;-76
2023/01/15 04:29:05;;;;;;;8.70;1.38;;;6.60;99.90;;;;;;5072790;28;20032;-76
2023/01/15 04:31:35;;;;;;;13.80;1.33;;;6.60;99.90;;;;;;5111240;28;20550;-76
2023/01/15 04:34:01;;;;;;;12.18;1.52;;;6.60;99.90;;;;;;5088796;28;20418;-76
2023/01/15 04:36:28;;;;;;;8.93;2.17;;;6.50;99.90;;;;;;5074033;28;20151;-76
2023/01/15 04:38:53;;;;;;;13.60;1.40;;;6.50;99.90;;;;;;5074497;28;20170;-76
2023/01/15 04:44:07;;;;;;;10.35;1.63;;;6.60;99.90;;;;;;5105400;28;20962;-76
2023/01/15 04:46:44;;;;;;;9.43;1.48;;;6.50;99.90;;;;;;5087030;28;20494;-76
2023/01/15 04:49:15;;;;;;;14.88;2.33;;;6.50;99.90;;;;;;5089422;28;20039;-76
2023/01/15 04:51:41;;;;;;;;;;;6.50;99.90;;;;;;5089233;28;20024;-76
2023/01/15 04:54:08;;;;;;;8.40;1.48;;;6.50;99.90;;;;;;5109091;28;19922;-77
2023/01/15 04:56:39;;;;;;;9.35;1.73;;;6.50;99.90;;;;;;5076569;28;20023;-76
2023/01/15 04:59:05;;;;;;;;;;;6.40;99.90;;;;;;5105865;28;20023;-76
2023/01/15 05:01:31;;;;;;;8.25;1.08;;;6.50;99.90;;;;;;5087817;28;19923;-75
2023/01/15 05:03:57;;;;;;;7.15;1.55;;;6.40;99.90;;;;;;5108008;28;20382;-76
2023/01/15 05:06:24;;;;;;;15.98;2.35;;;6.40;99.90;;;;;;5088660;28;20024;-78
2023/01/15 05:08:50;;;;;;;9.38;1.80;;;6.40;99.90;;;;;;5099294;28;20027;-77
2023/01/15 05:11:15;;;;;;;8.65;1.50;;;6.50;99.90;;;;;;5121551;28;20083;-78
2023/01/15 05:13:41;;;;;;;7.80;1.33;;;6.40;99.90;;;;;;5108809;28;20534;-78
2023/01/15 05:16:28;;;;;;;11.00;2.10;;;6.40;99.90;;;;;;5115829;28;20109;-78
2023/01/15 05:18:58;;;;;;;9.10;1.98;;;6.40;99.90;;;;;;5074558;28;20023;-78
2023/01/15 05:21:26;;;;;;;11.65;1.98;;;6.40;99.90;;;;;;5110985;28;20027;-79
2023/01/15 05:23:56;;;;;;;10.20;2.00;;;6.40;99.90;;;;;;5091699;28;21666;-78
2023/01/15 05:26:22;;;;;;;11.45;2.03;;;6.50;99.90;;;;;;5093851;28;20447;-78
2023/01/15 05:28:52;;;;;;;12.23;1.85;;;6.50;99.90;;;;;;5069328;28;20127;-78
2023/01/15 05:31:18;;;;;;;8.88;1.80;;;6.50;99.90;;;;;;5109546;28;20059;-76
2023/01/15 05:33:46;;;;;;;17.20;2.45;;;6.50;99.90;;;;;;5105428;28;20114;-77
2023/01/15 05:36:15;;;;;;;9.65;1.92;;;6.40;99.90;;;;;;5084676;28;20028;-76
2023/01/15 05:38:41;;;;;;;14.23;2.13;;;6.40;99.90;;;;;;5085878;28;20051;-75
2023/01/15 05:44:00;;;;;;;12.98;2.20;;;6.40;99.90;;;;;;5085474;28;20110;-77
2023/01/15 05:46:26;;;;;;;7.22;1.63;;;6.40;99.90;;;;;;5089877;28;20028;-77
2023/01/15 05:48:51;;;;;;;8.63;1.55;;;6.40;99.90;;;;;;5092846;28;20023;-75
2023/01/15 05:51:17;;;;;;;8.65;2.05;;;6.40;99.90;;;;;;5111009;28;20040;-76
2023/01/15 05:53:43;;;;;;;15.05;1.70;;;6.40;99.90;;;;;;5090831;28;20031;-77
2023/01/15 05:56:09;;;;;;;10.73;1.88;;;6.40;99.90;;;;;;5092789;28;20042;-77
2023/01/15 05:58:34;;;;;;;11.85;2.30;;;6.30;99.90;;;;;;5107493;28;20032;-77
2023/01/15 06:01:08;;;;;;;13.52;2.13;;;6.30;99.90;;;;;;5104744;27;20035;-77
2023/01/15 06:03:34;;;;;;;9.55;1.77;;;6.40;99.90;;;;;;5091624;28;20031;-77
2023/01/15 06:06:00;;;;;;;13.30;1.67;;;6.40;99.90;;;;;;5089462;28;20409;-77
2023/01/15 06:08:26;;;;;;;9.13;1.70;;;6.30;99.90;;;;;;5088327;28;20383;-76
2023/01/15 06:10:52;;;;;;;13.27;1.90;;;6.40;99.90;;;;;;5090801;28;20035;-77
2023/01/15 06:13:18;;;;;;;10.52;2.53;;;6.40;99.90;;;;;;5072514;28;20460;-78
2023/01/15 06:15:44;;;;;;;7.68;1.75;;;6.40;99.90;;;;;;5092611;28;20096;-78
2023/01/15 06:18:10;;;;;;;8.23;1.67;;;6.40;99.90;;;;;;5074985;28;20032;-80
2023/01/15 06:20:40;;;;;;;12.73;1.92;;;6.40;99.90;;;;;;5092205;28;20130;-78
2023/01/15 06:23:07;;;;;;;9.30;2.38;;;6.40;99.90;;;;;;5092459;28;20024;-78
2023/01/15 06:25:36;;;;;;;11.77;2.50;;;6.40;99.90;;;;;;5089884;28;20031;-76
2023/01/15 06:28:03;;;;;;;16.35;2.45;;;6.40;99.90;;;;;;5104631;28;20377;-77
2023/01/15 06:30:29;;;;;;;12.60;2.30;;;6.40;99.90;;;;;;5089359;28;20034;-78
2023/01/15 06:32:55;;;;;;;14.20;2.30;;;6.40;99.90;;;;;;5091819;28;20028;-77
2023/01/15 06:35:20;;;;;;;11.50;1.80;;;6.40;99.90;;;;;;5093648;28;20043;-78
2023/01/15 06:37:48;;;;;;;10.10;1.80;;;6.40;99.90;;;;;;5111697;28;20059;-78
2023/01/15 06:40:14;;;;;;;24.92;3.03;;;6.40;99.90;;;;;;5115606;28;20024;-78
2023/01/15 06:48:09;;;;;;;13.45;1.75;;;6.50;99.90;;;;;;5106707;28;20059;-78
2023/01/15 06:50:35;;;;;;;12.60;2.03;;;6.50;99.90;;;;;;5073189;28;20055;-76
2023/01/15 06:53:02;;;;;;;17.88;2.47;;;6.50;99.90;;;;;;5089193;28;20031;-78
2023/01/15 06:55:27;;;;;;;14.73;2.17;;;6.50;99.90;;;;;;5090988;28;20027;-76
2023/01/15 06:57:53;;;;;;;14.77;2.47;;;6.50;99.90;;;;;;5087781;28;20042;-76
2023/01/15 07:00:19;;;;;;;11.43;1.67;;;6.50;99.90;;;;;;5084637;28;20028;-76
2023/01/15 07:02:45;;;;;;;8.55;1.92;;;6.50;99.90;;;;;;5087303;28;20080;-76
2023/01/15 07:05:11;;;;;;;8.50;1.60;;;6.50;99.90;;;;;;5086720;28;20046;-76
2023/01/15 07:07:36;;;;;;;13.00;2.47;;;6.50;99.90;;;;;;5088368;28;20028;-77
2023/01/15 07:10:02;;;;;;;13.85;1.67;;;6.50;99.90;;;;;;5073793;28;20031;-76
2023/01/15 07:12:29;;;;;;;10.65;2.20;;;6.60;99.90;;;;;;5084847;28;20090;-77
2023/01/15 07:14:54;;;;;;;12.25;2.15;;;6.50;99.90;;;;;;5090166;28;20098;-78
2023/01/15 07:17:20;;;;;;;11.60;2.25;;;6.50;99.90;;;;;;5069907;28;20131;-76
2023/01/15 07:19:46;;;;;;;8.55;1.70;;;6.50;99.90;;;;;;5089238;28;20495;-77
2023/01/15 07:22:11;;;;;;;9.85;2.05;;;6.50;99.90;;;;;;5086238;28;20429;-76
2023/01/15 07:24:37;;;;;;;14.25;2.47;;;6.50;99.90;;;;;;5084404;28;20094;-76
2023/01/15 07:27:03;;;;;;;14.50;1.98;;;6.50;99.90;;;;;;5087216;28;20032;-76
2023/01/15 07:29:29;;;;;;;5.32;1.73;;;6.50;99.90;;;;;;5068182;28;20483;-76
2023/01/15 07:31:56;;;;;;;12.38;2.05;;;6.50;99.90;;;;;;5085882;28;20032;-76
2023/01/15 07:34:22;;;;;;;9.85;2.00;;;6.40;99.90;;;;;;5108709;28;20035;-79
2023/01/15 07:36:47;;;;;;;13.13;2.30;;;6.40;99.90;;;;;;5077752;28;20501;-78
2023/01/15 07:39:13;;;;;;;17.15;2.92;;;6.50;99.90;;;;;;5070394;28;20047;-78
2023/01/15 07:50:05;;;;;;;10.85;2.33;;;6.50;99.90;;;;;;5110931;28;20165;-76
2023/01/15 07:52:31;;;;;;;12.07;2.03;;;6.40;99.90;;;;;;5093883;28;20176;-77
2023/01/15 07:54:56;;;;;;;9.82;2.22;;;6.40;99.90;;;;;;5112034;28;20060;-77
2023/01/15 07:57:22;;;;;;;7.80;2.00;;;6.40;99.90;;;;;;5089579;28;20024;-76
2023/01/15 07:59:49;;;;;;;13.88;2.10;;;6.40;99.90;;;;;;5072358;28;20035;-79
2023/01/15 08:02:15;;;;;;;8.25;1.95;;;6.40;99.90;;;;;;5091452;28;20015;-78
2023/01/15 08:04:40;;;;;;;11.43;2.40;;;6.50;99.90;;;;;;5091282;28;20526;-77
2023/01/15 08:07:07;;;;;;;14.32;2.05;;;6.40;99.90;;;;;;5092848;28;20479;-76
2023/01/15 08:09:33;;;;;;;11.75;2.30;;;6.40;99.90;;;;;;5090597;28;20082;-77
2023/01/15 08:17:33;;;;;;;9.77;2.00;;;6.40;99.90;;;;;;5110352;27;20066;-78
2023/01/15 08:20:00;;;;;;;12.38;1.90;;;6.40;99.90;;;;;;5093016;28;20031;-78
2023/01/15 08:22:25;;;;;;;5.95;1.92;;;6.40;99.90;;;;;;5110703;28;20027;-76
2023/01/15 08:24:51;;;;;;;13.63;2.47;;;6.40;99.90;;;;;;5090379;28;20461;-78
2023/01/15 08:27:17;;;;;;;14.10;2.25;;;6.40;99.90;;;;;;5108571;28;20030;-76
2023/01/15 08:29:44;;;;;;;10.23;1.90;;;6.40;99.90;;;;;;5075333;28;20475;-77
2023/01/15 08:32:09;;;;;;;9.93;2.10;;;6.40;99.90;;;;;;5109534;28;20062;-73
2023/01/15 08:34:35;;;;;;;9.38;2.03;;;6.40;99.90;;;;;;5085930;28;20590;-74
2023/01/15 08:37:01;;;;;;;10.70;1.90;;;6.30;99.90;;;;;;5088593;28;20039;-73
2023/01/15 08:39:27;;;;;;;6.28;1.60;;;6.30;99.90;;;;;;5106777;28;20037;-74
2023/01/15 08:41:54;;;;;;;10.90;1.73;;;6.30;99.90;;;;;;5087220;28;20031;-74
2023/01/15 08:44:20;;;;;;;7.30;2.03;;;6.30;99.90;;;;;;5108390;28;20059;-74
2023/01/15 08:46:47;;;;;;;11.13;2.20;;;6.30;99.90;;;;;;5085211;28;20073;-74
2023/01/15 08:49:14;;;;;;;12.00;2.35;;;6.30;99.90;;;;;;5083493;28;20031;-76
2023/01/15 08:51:39;;;;;;;11.13;2.05;;;6.20;99.90;;;;;;5085257;28;20088;-76
2023/01/15 08:54:05;;;;;;;13.23;2.53;;;6.20;99.90;;;;;;5082890;28;20031;-73
2023/01/15 08:56:31;;;;;;;12.35;2.05;;;6.20;99.90;;;;;;5083534;28;20031;-77
2023/01/15 08:58:57;;;;;;;14.05;2.40;;;6.20;99.90;;;;;;5065390;28;20059;-79
2023/01/15 09:01:22;;;;;;;7.70;1.75;;;6.20;99.90;;;;;;5095209;28;20098;-80
2023/01/15 09:03:48;;;;;;;14.18;2.20;;;6.20;99.90;;;;;;5074648;28;20114;-82
2023/01/15 09:06:14;;;;;;;6.72;1.92;;;6.20;99.90;;;;;;5099510;28;20023;-76
2023/01/15 09:08:40;;;;;;;9.50;2.40;;;6.10;99.90;;;;;;5089392;27;20023;-81
2023/01/15 09:11:11;;;;;;;11.70;2.13;;;6.10;99.90;;;;;;5073285;28;20034;-79
2023/01/15 09:13:37;;;;;;;13.18;1.90;;;6.10;99.90;;;;;;5088692;28;21818;-80
2023/01/15 09:16:05;;;;;;;7.93;1.80;;;6.10;99.90;;;;;;5074506;28;20107;-80
2023/01/15 09:18:32;;;;;;;10.32;1.70;;;6.10;99.90;;;;;;5088740;28;20032;-79
2023/01/15 09:20:58;;;;;;;16.65;3.38;;;6.10;99.90;;;;;;5073935;28;20023;-78
2023/01/15 09:23:24;;;;;;;10.00;2.28;;;6.00;99.90;;;;;;5071333;28;20019;-83
2023/01/15 09:26:01;;;;;;;7.28;2.15;;;6.00;99.90;;;;;;5071446;28;20115;-76
2023/01/15 09:28:28;;;;;;;7.32;1.92;;;6.10;99.90;;;;;;5103027;28;20082;-76
2023/01/15 09:30:54;;;;;;;11.02;1.75;;;6.20;99.90;;;;;;5116655;28;20027;-77
2023/01/15 09:33:20;;;;;;;9.48;1.80;;;6.10;99.90;;;;;;5083312;28;20070;-74
2023/01/15 09:35:46;;;;;;;5.05;1.52;;;6.10;99.90;;;;;;5080084;28;20068;-75
2023/01/15 09:38:15;;;;;;;11.75;1.70;;;6.20;99.90;;;;;;5072404;28;20106;-77
2023/01/15 09:40:56;;;;;;;12.75;1.67;;;6.20;99.90;;;;;;5095625;28;20059;-76
2023/01/15 09:43:51;;;;;;;7.70;1.50;;;6.20;99.90;;;;;;5086245;28;20039;-77
2023/01/15 09:46:22;;;;;;;13.55;2.40;;;6.20;99.90;;;;;;5103662;28;20410;-77
2023/01/15 09:49:03;;;;;;;9.65;1.88;;;6.30;99.90;;;;;;5086878;28;20053;-75
2023/01/15 09:52:02;;;;;;;12.48;2.45;;;6.20;99.90;;;;;;5080238;28;21584;-75
2023/01/15 09:54:47;;;;;;;8.18;1.20;;;6.30;99.90;;;;;;5104332;28;20414;-75
2023/01/15 09:57:16;;;;;;;9.75;2.60;;;6.30;99.90;;;;;;5088024;28;20062;-77
2023/01/15 09:59:46;;;;;;;7.13;1.55;;;6.40;99.90;;;;;;5082392;28;20027;-77
2023/01/15 10:02:58;;;;;;;7.72;1.42;;;6.50;99.90;;;;;;5087208;28;20031;-76
2023/01/15 10:05:30;;;;;;;5.82;1.80;;;6.60;99.90;;;;;;5036032;28;20033;-76
2023/01/15 10:08:22;;;;;;;5.63;1.67;;;6.60;99.90;;;;;;5019196;28;20035;-75
2023/01/15 10:10:58;;;;;;;8.75;1.55;;;6.60;99.90;;;;;;5024808;28;20044;-77
2023/01/15 10:13:47;;;;;;;5.82;1.27;;;6.70;99.90;;;;;;5009606;28;20043;-75
2023/01/15 10:16:20;;;;;;;7.72;1.45;;;6.70;99.90;;;;;;5021816;28;20048;-76
2023/01/15 10:18:46;;;;;;;8.05;1.48;;;6.70;99.90;;;;;;5022716;28;20127;-76
2023/01/15 10:21:26;;;;;;;7.32;1.35;;;6.80;99.90;;;;;;5011183;28;20037;-77
2023/01/15 10:24:19;;;;;;;9.52;1.90;;;6.80;99.90;;;;;;5029176;28;20060;-75
2023/01/15 10:26:56;;;;;;;8.38;1.40;;;6.80;99.90;;;;;;5023911;28;22424;-76
2023/01/15 10:29:27;;;;;;;9.60;1.30;;;6.80;99.90;;;;;;5032159;28;20300;-77
2023/01/15 10:32:00;;;;;;;10.30;1.55;;;6.80;99.90;;;;;;5004881;28;20029;-77
2023/01/15 10:34:28;;;;;;;5.45;1.58;;;6.90;99.90;;;;;;5007727;28;20049;-77
2023/01/15 10:37:11;;;;;;;9.30;1.50;;;6.90;99.90;;;;;;5090036;28;20486;-77
2023/01/15 10:39:54;;;;;;;8.35;1.40;;;6.80;99.90;;;;;;5068253;28;20019;-77
2023/01/15 10:42:28;;;;;;;9.50;1.50;;;6.80;99.90;;;;;;5081339;28;20507;-77
2023/01/15 10:45:01;;;;;;;7.68;1.48;;;6.80;99.90;;;;;;5082575;28;20032;-75
2023/01/15 10:47:35;;;;;;;8.95;1.63;;;6.80;99.90;;;;;;5088128;28;20394;-75
2023/01/15 10:50:11;;;;;;;9.20;1.15;;;6.70;99.90;;;;;;5090132;28;20035;-75
2023/01/15 10:52:40;;;;;;;12.95;1.60;;;6.80;99.90;;;;;;5096694;28;20063;-75
2023/01/15 10:55:20;;;;;;;11.90;1.67;;;6.70;99.90;;;;;;5080044;28;20030;-74
2023/01/15 10:58:02;;;;;;;6.80;1.58;;;6.70;99.90;;;;;;5074813;28;20380;-74
2023/01/15 11:00:27;;;;;;;5.72;1.20;;;6.70;99.90;;;;;;5058382;28;20034;-74
2023/01/15 11:03:13;;;;;;;5.05;1.30;;;6.70;99.90;;;;;;5094177;28;20024;-75
2023/01/15 11:05:40;;;;;;;4.60;1.25;;;6.70;99.90;;;;;;5097892;28;20637;-74
2023/01/15 11:08:12;;;;;;;8.25;1.10;;;6.80;99.90;;;;;;5077901;28;20046;-74
2023/01/15 11:10:39;;;;;;;5.70;1.05;;;6.80;99.90;;;;;;5063439;28;20034;-75
2023/01/15 11:21:50;;;;;;;5.05;1.30;;;6.90;99.90;;;;;;5090494;28;20611;-74
2023/01/15 11:24:17;;;;;;;6.88;1.55;;;6.90;99.90;;;;;;5073243;28;20032;-75
2023/01/15 11:26:50;;;;;;;3.35;0.90;;;6.90;99.90;;;;;;5093336;27;20931;-74
2023/01/15 11:29:27;;;;;;;7.75;1.88;;;6.80;99.90;;;;;;5097431;27;20031;-74
2023/01/15 11:31:53;;;;;;;9.05;1.73;;;6.80;99.90;;;;;;5098693;27;20081;-75
2023/01/15 11:34:20;;;;;;;5.63;1.20;;;6.80;99.90;;;;;;5084085;28;20040;-74
2023/01/15 11:36:48;;;;;;;10.73;1.40;;;6.70;99.90;;;;;;5089753;28;20035;-74
2023/01/15 11:39:26;;;;;;;5.45;1.13;;;6.70;99.90;;;;;;5107843;28;20100;-75
2023/01/15 11:53:22;;;;;;;4.15;0.90;;;6.40;99.90;;;;;;5119209;28;20027;-75
2023/01/15 11:56:11;;;;;;;2.53;0.50;;;6.30;99.90;;;;;;5124148;28;20032;-74
2023/01/15 11:58:50;;;;;;;1.75;0.60;;;6.10;99.90;;;;;;5101864;28;20027;-75
2023/01/15 12:01:34;;;;;;;1.33;0.40;;;6.00;99.90;;;;;;5118829;28;20027;-76
2023/01/15 12:04:03;;;;;;;2.05;0.30;;;5.90;99.90;;;;;;5105863;28;20031;-77
2023/01/15 12:06:31;;;;;;;1.27;0.50;;;5.60;99.90;;;;;;5121688;28;20029;-76
2023/01/15 12:09:30;;;;;;;3.33;0.57;;;5.50;99.90;;;;;;5088391;27;20015;-77
2023/01/15 12:12:03;;;;;;;2.47;0.30;;;5.50;99.90;;;;;;5069930;28;20027;-77
2023/01/15 12:15:04;;;;;;;3.00;0.55;;;5.50;99.90;;;;;;5093565;28;20483;-77
2023/01/15 12:17:53;;;;;;;1.30;0.47;;;5.50;99.90;;;;;;5103949;28;20031;-76
2023/01/15 12:20:39;;;;;;;1.02;0.30;;;5.50;99.90;;;;;;5072164;28;20032;-77
2023/01/15 12:23:08;;;;;;;2.40;0.35;;;5.50;99.90;;;;;;5104939;28;20032;-75
2023/01/15 12:26:00;;;;;;;2.53;0.40;;;5.40;99.90;;;;;;5109322;28;20423;-75
2023/01/15 12:28:34;;;;;;;1.95;0.50;;;5.40;99.90;;;;;;5069039;27;20122;-76
2023/01/15 12:31:12;;;;;;;2.78;0.70;;;5.30;99.90;;;;;;5092096;28;20415;-76
2023/01/15 12:33:38;;;;;;;3.55;0.73;;;5.30;99.90;;;;;;5107561;28;20031;-77
2023/01/15 12:36:30;;;;;;;3.20;0.80;;;5.30;99.90;;;;;;5111171;28;20320;-76
2023/01/15 12:39:15;;;;;;;5.03;0.90;;;5.30;99.90;;;;;;5085079;28;20059;-76
2023/01/15 12:45:04;;;;;;;7.38;1.10;;;5.40;99.90;;;;;;5106006;28;20027;-77
2023/01/15 12:47:49;;;;;;;4.32;1.33;;;5.50;99.90;;;;;;5073625;28;21634;-76
2023/01/15 12:50:21;;;;;;;7.03;1.75;;;5.60;99.90;;;;;;5091881;28;20028;-75
2023/01/15 12:52:53;;;;;;;7.65;1.98;;;5.60;99.90;;;;;;5111255;28;20024;-76
2023/01/15 12:55:23;;;;;;;4.97;1.20;;;5.70;99.90;;;;;;5093751;28;20440;-78
2023/01/15 12:57:52;;;;;;;3.30;1.25;;;5.90;99.90;;;;;;5088503;28;20035;-76
2023/01/15 13:00:38;;;;;;;8.05;1.77;;;5.90;99.90;;;;;;5088980;28;20032;-77
2023/01/15 13:03:23;;;;;;;6.90;1.30;;;6.00;99.90;;;;;;5091250;28;20054;-77
2023/01/15 13:05:57;;;;;;;8.65;1.77;;;6.10;99.90;;;;;;5089187;28;20024;-76
2023/01/15 13:09:04;;;;;;;8.15;1.73;;;6.10;99.90;;;;;;5087764;28;20467;-76
2023/01/15 13:11:30;;;;;;;10.98;1.60;;;6.10;99.90;;;;;;5070954;28;20040;-77
2023/01/15 13:13:59;;;;;;;6.95;1.80;;;6.10;99.90;;;;;;5100254;27;20078;-75
2023/01/15 13:17:18;;;;;;;8.82;1.67;;;6.10;99.90;;;;;;5106715;28;20042;-75
2023/01/15 13:19:53;;;;;;;7.50;1.90;;;6.10;99.90;;;;;;5013710;28;20159;-76
2023/01/15 13:22:24;;;;;;;6.00;1.70;;;6.10;99.90;;;;;;5102101;28;20051;-76
2023/01/15 13:24:49;;;;;;;;;;;6.20;99.90;;;;;;5096258;27;20024;-76
2023/01/15 13:27:33;;;;;;;636.67;323.35;;;6.20;99.90;;;;;;5105433;28;20280;-75
2023/01/15 13:30:34;;;;;;;20.95;12.27;;;6.30;99.90;;;;;;5107492;28;20043;-75
2023/01/15 13:33:22;;;;;;;5.65;1.58;;;6.30;99.90;;;;;;5115859;27;20047;-76
2023/01/15 13:35:52;;;;;;;9.18;2.00;;;6.30;99.90;;;;;;5117362;27;20336;-75
2023/01/15 13:38:23;;;;;;;9.95;1.52;;;6.30;99.90;;;;;;5107414;27;20153;-75
2023/01/15 13:40:52;;;;;;;10.35;1.70;;;6.30;99.90;;;;;;5082324;28;20441;-74
2023/01/15 13:43:33;;;;;;;13.75;2.67;;;6.30;99.90;;;;;;5105627;28;20035;-76
2023/01/15 13:46:02;;;;;;;8.95;1.63;;;6.30;99.90;;;;;;5103190;28;20169;-76
2023/01/15 13:48:34;;;;;;;5.07;1.48;;;6.30;99.90;;;;;;5102738;28;20131;-75
2023/01/15 13:51:03;;;;;;;5.13;1.42;;;6.40;99.90;;;;;;5099722;28;20031;-75
2023/01/15 13:53:47;;;;;;;4.90;1.25;;;6.40;99.90;;;;;;5104174;28;20399;-76
2023/01/15 13:56:24;;;;;;;10.55;2.10;;;6.40;99.90;;;;;;5104388;27;20434;-76
2023/01/15 13:58:56;;;;;;;4.25;1.00;;;6.40;99.90;;;;;;5103819;28;20027;-75
2023/01/15 14:01:33;;;;;;;8.90;1.52;;;6.50;99.90;;;;;;5103006;28;20032;-76
2023/01/15 14:04:09;;;;;;;11.27;1.83;;;6.50;99.90;;;;;;5099634;28;20051;-75
2023/01/15 14:06:48;;;;;;;6.72;1.98;;;6.60;99.90;;;;;;5105473;28;20602;-75
2023/01/15 14:09:22;;;;;;;8.68;1.60;;;6.60;99.90;;;;;;5104413;28;20700;-76
2023/01/15 14:11:57;;;;;;;13.63;1.80;;;6.60;99.90;;;;;;5084379;28;20030;-75
2023/01/15 14:14:51;;;;;;;7.45;1.20;;;6.60;99.90;;;;;;5103889;28;20110;-76